createdAt,value
2022-12-27T00:01:23.953Z,43.88
2022-12-27T00:03:57.586Z,43.93
2022-12-27T00:06:31.924Z,43.96
2022-12-27T00:09:11.021Z,43.95
2022-12-27T00:11:47.652Z,43.92
2022-12-27T00:14:15.404Z,43.98
2022-12-27T00:16:45.430Z,44.01
2022-12-27T00:19:16.134Z,44.03
2022-12-27T00:21:50.103Z,43.96
2022-12-27T00:24:17.837Z,43.98
2022-12-27T00:26:58.397Z,44.01
2022-12-27T00:29:34.877Z,44.04
2022-12-27T00:32:09.629Z,44.05
2022-12-27T00:34:41.994Z,44.04
2022-12-27T00:37:13.427Z,43.93
2022-12-27T00:39:45.717Z,44.22
2022-12-27T00:42:22.176Z,44.22
2022-12-27T00:44:51.364Z,44.14
2022-12-27T00:47:21.478Z,44.06
2022-12-27T00:49:54.968Z,44.01
2022-12-27T00:52:24.589Z,44.03
2022-12-27T00:54:54.759Z,43.99
2022-12-27T00:57:24.953Z,44.03
2022-12-27T00:59:58.095Z,44.00
2022-12-27T01:02:33.857Z,44.00
2022-12-27T01:05:03.994Z,43.97
2022-12-27T01:07:36.976Z,43.98
2022-12-27T01:10:11.583Z,43.94
2022-12-27T01:12:47.504Z,43.96
2022-12-27T01:15:18.847Z,43.91
2022-12-27T01:17:51.259Z,43.88
2022-12-27T01:20:18.271Z,43.92
2022-12-27T01:22:50.325Z,43.92
2022-12-27T01:25:17.277Z,43.90
2022-12-27T01:27:47.150Z,43.94
2022-12-27T01:30:19.870Z,43.93
2022-12-27T01:32:50.179Z,43.90
2022-12-27T01:35:23.331Z,43.94
2022-12-27T01:37:58.888Z,43.92
2022-12-27T01:40:32.834Z,43.94
2022-12-27T01:43:03.793Z,43.96
2022-12-27T01:45:37.075Z,43.98
2022-12-27T01:48:05.795Z,43.96
2022-12-27T01:50:53.585Z,44.01
2022-12-27T01:53:27.498Z,43.99
2022-12-27T01:56:05.069Z,43.96
2022-12-27T01:58:52.401Z,43.96
2022-12-27T02:01:31.089Z,43.96
2022-12-27T02:04:04.609Z,44.02
2022-12-27T02:06:40.300Z,43.96
2022-12-27T02:09:25.559Z,44.02
2022-12-27T02:11:58.183Z,43.94
2022-12-27T02:14:30.161Z,43.96
2022-12-27T02:17:10.792Z,43.97
2022-12-27T02:20:14.472Z,43.97
2022-12-27T02:22:50.552Z,43.97
2022-12-27T02:25:32.539Z,43.96
2022-12-27T02:28:41.412Z,43.91
2022-12-27T02:31:36.215Z,43.99
2022-12-27T02:34:29.991Z,43.98
2022-12-27T02:37:04.870Z,43.95
2022-12-27T02:39:37.521Z,43.93
2022-12-27T02:42:09.045Z,44.00
2022-12-27T02:44:42.539Z,43.97
2022-12-27T02:47:19.973Z,43.99
2022-12-27T02:49:50.802Z,44.05
2022-12-27T02:52:59.346Z,44.10
2022-12-27T02:56:04.484Z,44.21
2022-12-27T02:59:08.075Z,44.25
2022-12-27T03:02:08.968Z,44.17
2022-12-27T03:04:57.085Z,44.20
2022-12-27T03:07:32.560Z,44.30
2022-12-27T03:10:18.266Z,44.30
2022-12-27T03:13:03.559Z,44.31
2022-12-27T03:15:48.325Z,44.34
2022-12-27T03:18:25.535Z,44.33
2022-12-27T03:20:57.884Z,44.34
2022-12-27T03:23:32.547Z,44.32
2022-12-27T03:26:01.953Z,44.39
2022-12-27T03:28:34.531Z,44.41
2022-12-27T03:31:07.624Z,44.37
2022-12-27T03:33:40.032Z,44.42
2022-12-27T03:36:23.760Z,44.42
2022-12-27T03:39:03.385Z,44.48
2022-12-27T03:41:36.563Z,44.45
2022-12-27T03:44:09.229Z,44.47
2022-12-27T03:46:37.102Z,44.43
2022-12-27T03:49:21.924Z,44.46
2022-12-27T03:52:14.868Z,44.47
2022-12-27T03:54:47.339Z,44.51
2022-12-27T03:57:26.718Z,44.50
2022-12-27T03:59:59.800Z,44.54
2022-12-27T04:02:26.884Z,44.61
2022-12-27T04:04:54.738Z,44.54
2022-12-27T04:07:29.131Z,44.50
2022-12-27T04:09:56.612Z,44.50
2022-12-27T04:12:30.296Z,44.46
2022-12-27T04:15:03.900Z,44.49
2022-12-27T04:17:37.286Z,44.51
2022-12-27T04:20:07.108Z,44.51
2022-12-27T04:22:42.967Z,44.52
2022-12-27T04:25:18.479Z,44.51
2022-12-27T04:27:46.158Z,44.56
2022-12-27T04:30:22.561Z,44.59
2022-12-27T04:32:52.820Z,44.57
2022-12-27T04:35:26.459Z,44.60
2022-12-27T04:37:59.072Z,44.54
2022-12-27T04:40:28.883Z,44.57
2022-12-27T04:43:02.520Z,44.62
2022-12-27T04:45:35.331Z,44.65
2022-12-27T04:48:13.447Z,44.57
2022-12-27T04:50:45.848Z,44.54
2022-12-27T04:53:23.493Z,44.57
2022-12-27T04:55:59.196Z,44.52
2022-12-27T04:58:35.290Z,44.57
2022-12-27T05:01:14.300Z,44.58
2022-12-27T05:03:46.521Z,44.58
2022-12-27T05:06:17.423Z,44.63
2022-12-27T05:08:47.715Z,44.71
2022-12-27T05:11:16.179Z,44.61
2022-12-27T05:13:52.606Z,44.54
2022-12-27T05:16:26.792Z,44.69
2022-12-27T05:18:59.621Z,44.59
2022-12-27T05:21:37.107Z,44.58
2022-12-27T05:24:13.368Z,44.57
2022-12-27T05:26:43.276Z,44.56
2022-12-27T05:29:16.175Z,44.56
2022-12-27T05:31:49.517Z,44.64
2022-12-27T05:34:18.996Z,44.59
2022-12-27T05:36:49.011Z,44.58
2022-12-27T05:39:16.347Z,44.58
2022-12-27T05:41:49.674Z,44.58
2022-12-27T05:44:25.396Z,44.66
2022-12-27T05:46:56.991Z,44.64
2022-12-27T05:49:24.277Z,44.66
2022-12-27T05:51:51.751Z,44.70
2022-12-27T05:54:24.554Z,44.72
2022-12-27T05:56:58.714Z,44.83
2022-12-27T05:59:34.444Z,44.86
2022-12-27T06:02:07.221Z,44.94
2022-12-27T06:04:43.211Z,44.88
2022-12-27T06:07:12.973Z,44.99
2022-12-27T06:09:46.660Z,45.04
2022-12-27T06:12:19.390Z,44.90
2022-12-27T06:14:52.151Z,45.06
2022-12-27T06:17:24.929Z,45.42
2022-12-27T06:19:57.188Z,45.31
2022-12-27T06:22:29.901Z,45.33
2022-12-27T06:24:59.575Z,45.30
2022-12-27T06:27:30.015Z,45.25
2022-12-27T06:30:03.841Z,45.20
2022-12-27T06:32:35.339Z,45.19
2022-12-27T06:35:05.644Z,45.21
2022-12-27T06:37:38.406Z,45.43
2022-12-27T06:40:11.671Z,45.25
2022-12-27T06:42:41.896Z,44.94
2022-12-27T06:45:17.516Z,44.87
2022-12-27T06:47:47.923Z,44.88
2022-12-27T06:50:24.010Z,45.09
2022-12-27T06:52:53.639Z,45.12
2022-12-27T06:55:27.311Z,45.21
2022-12-27T06:58:03.789Z,45.35
2022-12-27T07:00:36.879Z,45.75
2022-12-27T07:03:08.511Z,46.08
2022-12-27T07:05:44.899Z,46.02
2022-12-27T07:08:21.189Z,45.91
2022-12-27T07:10:54.066Z,45.71
2022-12-27T07:13:24.349Z,45.64
2022-12-27T07:15:54.983Z,45.51
2022-12-27T07:18:25.368Z,45.42
2022-12-27T07:21:03.629Z,45.39
2022-12-27T07:23:33.165Z,45.39
2022-12-27T07:26:14.472Z,45.41
2022-12-27T07:28:53.019Z,45.42
2022-12-27T07:31:24.775Z,45.28
2022-12-27T07:33:57.676Z,45.21
2022-12-27T07:36:32.336Z,45.25
2022-12-27T07:39:04.901Z,45.22
2022-12-27T07:41:35.429Z,45.30
2022-12-27T07:44:06.499Z,45.22
2022-12-27T07:46:34.232Z,45.11
2022-12-27T07:49:17.203Z,45.08
2022-12-27T07:51:51.217Z,45.03
2022-12-27T07:54:24.449Z,44.99
2022-12-27T07:56:58.150Z,42.80
2022-12-27T07:59:37.059Z,40.81
2022-12-27T08:02:06.733Z,40.98
2022-12-27T08:04:40.290Z,42.94
2022-12-27T08:07:22.474Z,43.59
2022-12-27T08:09:58.302Z,44.06
2022-12-27T08:12:31.252Z,43.92
2022-12-27T08:15:07.735Z,44.39
2022-12-27T08:17:41.148Z,44.46
2022-12-27T08:20:14.084Z,44.62
2022-12-27T08:22:43.862Z,44.61
2022-12-27T08:25:17.547Z,44.54
2022-12-27T08:27:44.547Z,44.62
2022-12-27T08:30:11.676Z,44.73
2022-12-27T08:32:41.606Z,44.95
2022-12-27T08:35:50.325Z,45.25
2022-12-27T08:38:06.387Z,45.28
2022-12-27T08:40:40.390Z,45.49
2022-12-27T08:43:12.331Z,45.33
2022-12-27T08:45:46.667Z,45.70
2022-12-27T08:48:17.044Z,45.52
2022-12-27T08:50:44.388Z,45.46
2022-12-27T08:53:11.519Z,45.33
2022-12-27T08:55:45.465Z,45.44
2022-12-27T08:58:16.427Z,45.63
2022-12-27T09:00:48.937Z,45.65
2022-12-27T09:03:21.476Z,45.62
2022-12-27T09:05:51.419Z,45.51
2022-12-27T09:08:18.839Z,45.57
2022-12-27T09:10:48.788Z,45.43
2022-12-27T09:13:19.918Z,45.23
2022-12-27T09:15:52.936Z,44.91
2022-12-27T09:18:25.407Z,44.83
2022-12-27T09:21:06.357Z,44.46
2022-12-27T09:23:39.142Z,44.32
2022-12-27T09:26:14.377Z,44.30
2022-12-27T09:28:42.303Z,44.20
2022-12-27T09:31:11.984Z,43.78
2022-12-27T09:33:42.231Z,43.38
2022-12-27T09:36:20.919Z,43.76
2022-12-27T09:38:48.691Z,43.76
2022-12-27T09:42:25.188Z,43.84
2022-12-27T09:44:21.168Z,44.01
2022-12-27T09:46:56.830Z,44.07
2022-12-27T09:49:34.039Z,44.01
2022-12-27T09:52:32.957Z,43.95
2022-12-27T09:55:16.447Z,44.39
2022-12-27T09:57:46.414Z,44.67
2022-12-27T10:00:18.346Z,44.55
2022-12-27T10:02:45.711Z,44.44
2022-12-27T10:05:25.135Z,44.28
2022-12-27T10:08:16.419Z,44.14
2022-12-27T10:11:22.489Z,44.04
2022-12-27T10:14:02.307Z,44.09
2022-12-27T10:16:38.986Z,44.15
2022-12-27T10:19:15.358Z,44.29
2022-12-27T10:22:24.405Z,44.39
2022-12-27T10:24:56.527Z,44.42
2022-12-27T10:27:30.401Z,44.16
2022-12-27T10:30:01.781Z,43.53
2022-12-27T10:32:35.786Z,43.76
2022-12-27T10:35:04.452Z,44.00
2022-12-27T10:37:34.627Z,44.19
2022-12-27T10:40:34.006Z,44.16
2022-12-27T10:43:29.407Z,44.50
2022-12-27T10:46:10.740Z,44.70
2022-12-27T10:49:18.926Z,44.69
2022-12-27T10:51:36.756Z,44.63
2022-12-27T10:54:05.542Z,44.60
2022-12-27T10:56:38.644Z,44.62
2022-12-27T10:59:12.473Z,44.75
2022-12-27T11:01:46.029Z,45.12
2022-12-27T11:04:27.238Z,45.15
2022-12-27T11:07:01.290Z,45.25
2022-12-27T11:09:36.989Z,45.37
2022-12-27T11:12:23.461Z,45.60
2022-12-27T11:15:02.294Z,45.93
2022-12-27T11:17:54.047Z,45.44
2022-12-27T11:20:26.748Z,45.23
2022-12-27T11:23:11.903Z,44.91
2022-12-27T11:25:59.710Z,44.45
2022-12-27T11:28:42.380Z,44.58
2022-12-27T11:31:17.817Z,44.62
2022-12-27T11:34:03.138Z,44.60
2022-12-27T11:36:43.073Z,44.60
2022-12-27T11:39:43.341Z,44.63
2022-12-27T11:42:34.524Z,44.62
2022-12-27T11:45:26.815Z,44.42
2022-12-27T11:48:06.853Z,44.57
2022-12-27T11:50:51.968Z,44.59
2022-12-27T11:53:40.072Z,44.69
2022-12-27T11:56:10.267Z,44.71
2022-12-27T11:58:51.464Z,44.66
2022-12-27T12:01:54.324Z,44.62
2022-12-27T12:04:55.087Z,44.62
2022-12-27T12:08:20.748Z,44.60
2022-12-27T12:10:59.775Z,44.67
2022-12-27T12:13:39.317Z,44.70
2022-12-27T12:16:33.916Z,44.78
2022-12-27T12:19:14.198Z,44.68
2022-12-27T12:22:38.174Z,44.80
2022-12-27T12:25:32.944Z,45.16
2022-12-27T12:28:57.820Z,44.95
2022-12-27T12:31:42.648Z,45.00
2022-12-27T12:34:24.869Z,44.96
2022-12-27T12:37:12.898Z,44.95
2022-12-27T12:40:07.969Z,45.00
2022-12-27T12:42:55.715Z,45.30
2022-12-27T12:45:44.829Z,45.22
2022-12-27T12:48:37.653Z,45.05
2022-12-27T12:51:20.304Z,45.22
2022-12-27T12:54:16.326Z,44.96
2022-12-27T12:56:59.419Z,44.90
2022-12-27T12:59:47.241Z,44.94
2022-12-27T13:02:51.491Z,45.26
2022-12-27T13:05:45.215Z,45.55
2022-12-27T13:08:49.793Z,45.67
2022-12-27T13:11:39.042Z,45.79
2022-12-27T13:14:23.763Z,45.90
2022-12-27T13:17:16.659Z,45.96
2022-12-27T13:19:50.043Z,45.84
2022-12-27T13:23:18.030Z,45.59
2022-12-27T13:25:55.419Z,45.54
2022-12-27T13:28:40.780Z,45.16
2022-12-27T13:31:26.423Z,44.91
2022-12-27T13:34:43.489Z,44.71
2022-12-27T13:37:42.702Z,44.57
2022-12-27T13:40:22.189Z,44.37
2022-12-27T13:43:17.028Z,44.31
2022-12-27T13:46:12.049Z,44.34
2022-12-27T13:49:23.471Z,44.16
2022-12-27T13:52:02.206Z,44.13
2022-12-27T13:54:41.394Z,44.18
2022-12-27T13:57:29.687Z,44.22
2022-12-27T13:59:59.479Z,44.24
2022-12-27T14:02:34.438Z,44.19
2022-12-27T14:05:07.328Z,44.19
2022-12-27T14:07:49.564Z,44.12
2022-12-27T14:10:31.900Z,44.04
2022-12-27T14:13:06.173Z,44.01
2022-12-27T14:16:04.887Z,43.99
2022-12-27T14:18:49.918Z,43.94
2022-12-27T14:21:31.867Z,43.79
2022-12-27T14:24:29.224Z,44.00
2022-12-27T14:27:33.161Z,43.97
2022-12-27T14:30:06.260Z,44.00
2022-12-27T14:33:22.242Z,43.89
2022-12-27T14:36:46.258Z,43.96
2022-12-27T14:39:37.620Z,43.91
2022-12-27T14:42:49.602Z,43.85
2022-12-27T14:45:57.696Z,43.85
2022-12-27T14:48:47.409Z,43.77
2022-12-27T14:52:02.424Z,43.53
2022-12-27T14:55:12.872Z,43.57
2022-12-27T14:57:54.754Z,43.63
2022-12-27T15:00:30.478Z,43.93
2022-12-27T15:03:08.196Z,45.19
2022-12-27T15:05:54.119Z,45.15
2022-12-27T15:08:43.004Z,45.18
2022-12-27T15:11:22.077Z,45.46
2022-12-27T15:14:22.675Z,45.40
2022-12-27T15:17:10.408Z,45.18
2022-12-27T15:20:06.180Z,45.03
2022-12-27T15:22:58.931Z,44.94
2022-12-27T15:25:52.922Z,44.90
2022-12-27T15:28:41.578Z,44.85
2022-12-27T15:31:32.612Z,44.70
2022-12-27T15:34:25.886Z,44.67
2022-12-27T15:36:52.963Z,44.59
2022-12-27T15:39:34.934Z,44.56
2022-12-27T15:42:48.932Z,44.52
2022-12-27T15:45:44.182Z,44.49
2022-12-27T15:48:29.462Z,44.46
2022-12-27T15:50:56.326Z,44.39
2022-12-27T15:53:48.077Z,44.38
2022-12-27T15:56:53.558Z,44.32
2022-12-27T15:59:48.167Z,44.29
2022-12-27T16:02:28.450Z,44.28
2022-12-27T16:05:06.200Z,44.28
2022-12-27T16:07:42.587Z,44.36
2022-12-27T16:10:30.341Z,44.25
2022-12-27T16:13:09.352Z,44.22
2022-12-27T16:15:51.028Z,44.18
2022-12-27T16:18:24.317Z,44.17
2022-12-27T16:21:20.078Z,44.04
2022-12-27T16:23:47.979Z,44.10
2022-12-27T16:26:21.506Z,44.08
2022-12-27T16:29:23.658Z,44.04
2022-12-27T16:32:11.037Z,44.00
2022-12-27T16:34:43.218Z,44.00
2022-12-27T16:37:27.850Z,44.04
2022-12-27T16:40:17.899Z,43.97
2022-12-27T16:42:47.595Z,43.93
2022-12-27T16:45:38.227Z,43.90
2022-12-27T16:48:07.932Z,44.01
2022-12-27T16:50:45.861Z,43.86
2022-12-27T16:53:36.988Z,43.89
2022-12-27T16:56:18.720Z,43.87
2022-12-27T16:58:52.423Z,43.85
2022-12-27T17:01:23.689Z,43.77
2022-12-27T17:03:57.529Z,44.00
2022-12-27T17:06:32.597Z,43.79
2022-12-27T17:09:11.884Z,43.84
2022-12-27T17:11:51.398Z,43.75
2022-12-27T17:14:28.776Z,43.76
2022-12-27T17:17:20.632Z,43.75
2022-12-27T17:19:59.558Z,43.71
2022-12-27T17:22:38.606Z,43.61
2022-12-27T17:25:19.012Z,43.79
2022-12-27T17:27:57.975Z,43.63
2022-12-27T17:30:54.804Z,43.67
2022-12-27T17:33:51.951Z,43.64
2022-12-27T17:36:37.000Z,43.62
2022-12-27T17:39:27.190Z,43.55
2022-12-27T17:42:30.072Z,43.61
2022-12-27T17:45:51.116Z,43.59
2022-12-27T17:48:29.213Z,43.66
2022-12-27T17:51:11.689Z,43.67
2022-12-27T17:53:52.767Z,43.65
2022-12-27T17:56:27.100Z,43.77
2022-12-27T17:59:19.560Z,43.68
2022-12-27T18:01:52.401Z,43.56
2022-12-27T18:04:31.574Z,43.60
2022-12-27T18:07:05.937Z,43.59
2022-12-27T18:09:50.092Z,41.55
2022-12-27T18:12:29.202Z,41.87
2022-12-27T18:15:07.093Z,43.20
2022-12-27T18:17:45.916Z,43.75
2022-12-27T18:20:28.052Z,44.42
2022-12-27T18:23:04.706Z,44.44
2022-12-27T18:25:41.371Z,44.42
2022-12-27T18:28:21.001Z,44.23
2022-12-27T18:31:01.034Z,44.29
2022-12-27T18:33:37.823Z,44.28
2022-12-27T18:36:09.198Z,44.94
2022-12-27T18:38:47.971Z,44.88
2022-12-27T18:41:22.948Z,44.83
2022-12-27T18:43:59.245Z,44.82
2022-12-27T18:46:38.433Z,44.92
2022-12-27T18:49:07.303Z,44.83
2022-12-27T18:51:39.464Z,44.78
2022-12-27T18:54:48.189Z,44.57
2022-12-27T18:57:37.157Z,44.99
2022-12-27T19:00:26.285Z,44.69
2022-12-27T19:03:15.273Z,44.45
2022-12-27T19:06:08.065Z,44.91
2022-12-27T19:08:45.734Z,44.92
2022-12-27T19:11:24.818Z,45.07
2022-12-27T19:13:55.578Z,44.82
2022-12-27T19:16:34.469Z,44.11
2022-12-27T19:19:24.804Z,43.76
2022-12-27T19:21:56.259Z,43.82
2022-12-27T19:24:26.693Z,44.17
2022-12-27T19:27:23.153Z,44.49
2022-12-27T19:29:54.835Z,44.37
2022-12-27T19:32:38.329Z,44.03
2022-12-27T19:35:14.165Z,44.13
2022-12-27T19:37:45.573Z,44.02
2022-12-27T19:40:15.895Z,43.92
2022-12-27T19:42:46.336Z,43.91
2022-12-27T19:45:23.252Z,43.83
2022-12-27T19:47:58.542Z,43.82
2022-12-27T19:50:28.833Z,43.78
2022-12-27T19:52:59.426Z,43.53
2022-12-27T19:55:27.312Z,43.60
2022-12-27T19:57:55.298Z,44.03
2022-12-27T20:00:32.554Z,43.91
2022-12-27T20:03:08.343Z,43.82
2022-12-27T20:06:11.332Z,43.76
2022-12-27T20:08:45.440Z,43.48
2022-12-27T20:11:19.537Z,43.49
2022-12-27T20:13:52.233Z,43.69
2022-12-27T20:16:23.482Z,43.57
2022-12-27T20:18:53.560Z,43.50
2022-12-27T20:21:25.672Z,43.35
2022-12-27T20:23:59.505Z,43.47
2022-12-27T20:26:29.153Z,43.30
2022-12-27T20:28:56.253Z,43.84
2022-12-27T20:31:23.386Z,44.13
2022-12-27T20:33:56.112Z,43.83
2022-12-27T20:36:30.348Z,43.98
2022-12-27T20:39:06.771Z,43.93
2022-12-27T20:41:43.212Z,43.79
2022-12-27T20:44:19.211Z,43.84
2022-12-27T20:46:53.801Z,43.76
2022-12-27T20:49:23.827Z,43.78
2022-12-27T20:51:56.698Z,43.88
2022-12-27T20:54:29.955Z,43.78
2022-12-27T20:57:03.315Z,43.74
2022-12-27T20:59:35.942Z,43.86
2022-12-27T21:02:04.588Z,43.97
2022-12-27T21:04:36.175Z,44.09
2022-12-27T21:07:06.482Z,43.71
2022-12-27T21:09:37.118Z,43.79
2022-12-27T21:12:11.116Z,43.73
2022-12-27T21:14:38.672Z,43.80
2022-12-27T21:17:06.086Z,43.93
2022-12-27T21:19:33.841Z,43.80
2022-12-27T21:22:01.129Z,43.53
2022-12-27T21:24:31.767Z,42.67
2022-12-27T21:27:03.081Z,43.20
2022-12-27T21:29:33.293Z,43.76
2022-12-27T21:32:00.839Z,43.45
2022-12-27T21:34:34.131Z,43.54
2022-12-27T21:37:12.855Z,43.44
2022-12-27T21:39:43.709Z,43.57
2022-12-27T21:42:11.442Z,43.39
2022-12-27T21:44:41.716Z,43.61
2022-12-27T21:47:12.890Z,43.69
2022-12-27T21:49:46.011Z,43.57
2022-12-27T21:52:14.427Z,43.47
2022-12-27T21:54:45.170Z,43.58
2022-12-27T21:57:14.099Z,43.65
2022-12-27T21:59:45.104Z,43.51
2022-12-27T22:02:15.772Z,43.59
2022-12-27T22:04:50.376Z,43.67
2022-12-27T22:07:23.816Z,43.67
2022-12-27T22:09:54.016Z,43.67
2022-12-27T22:12:24.340Z,43.52
2022-12-27T22:14:51.784Z,43.66
2022-12-27T22:17:18.661Z,43.63
2022-12-27T22:19:48.796Z,43.70
2022-12-27T22:22:15.703Z,43.72
2022-12-27T22:24:43.371Z,43.80
2022-12-27T22:27:13.531Z,43.75
2022-12-27T22:29:45.303Z,43.71
2022-12-27T22:32:18.787Z,43.66
2022-12-27T22:34:48.282Z,43.69
2022-12-27T22:37:19.093Z,43.78
2022-12-27T22:39:50.403Z,43.79
2022-12-27T22:42:29.569Z,43.90
2022-12-27T22:45:06.004Z,43.86
2022-12-27T22:47:35.790Z,43.78
2022-12-27T22:50:06.260Z,43.34
2022-12-27T22:52:36.015Z,43.80
2022-12-27T22:55:08.958Z,43.88
2022-12-27T22:57:36.271Z,43.89
2022-12-27T23:00:13.439Z,43.88
2022-12-27T23:02:47.178Z,44.37
2022-12-27T23:05:19.886Z,44.26
2022-12-27T23:08:04.411Z,43.99
2022-12-27T23:10:37.037Z,42.92
2022-12-27T23:13:04.675Z,42.62
2022-12-27T23:15:34.900Z,43.85
2022-12-27T23:18:03.910Z,43.92
2022-12-27T23:21:20.911Z,43.85
2022-12-27T23:23:38.708Z,43.99
2022-12-27T23:26:20.586Z,43.92
2022-12-27T23:28:58.136Z,44.05
2022-12-27T23:31:32.240Z,44.05
2022-12-27T23:34:05.960Z,44.08
2022-12-27T23:36:37.433Z,43.88
2022-12-27T23:39:07.687Z,43.92
2022-12-27T23:41:38.198Z,43.91
2022-12-27T23:44:08.721Z,43.96
2022-12-27T23:46:36.038Z,44.04
2022-12-27T23:49:07.670Z,44.13
2022-12-27T23:51:40.175Z,43.96
2022-12-27T23:54:10.618Z,44.04
2022-12-27T23:56:37.860Z,43.92
2022-12-27T23:59:10.446Z,44.09
